Главная страница
METAR-TAF:

METAR-TAF

Аэропорты :

Сенендедж, Иран

широта: 35-20N, долгота: 047-00E, высота над уровнем моря: 1373 м

Текущие метеонаблюдения

Эта сводка был подготовлена 1 час и 0 минут назад, в 00:00 UTC
Ветер 8 Узел от южный
Температура 10°C
Влажность 53%
Давление 1019 hPa
Видимость 10 км и более
Отдельные облака на высоте 4000 фута

METAR: OICS 270000Z 19008KT 9999 SCT040 10/01 Q1019 A3010

Время: 04:30 (01:00 UTC)


TAF: отсутствует

Метеонаблюдения и прогнозы для более 4000 аэропортов (сводки METAR и TAF).

Имеющиеся станции представлены на карте желтыми и красными точками.

Чтобы увидеть название станции, наведите на нее мышь.

Затем щелкните, чтобы увидеть метеонаблюдения и метеопрогнозы.

Управление картой: чтобы увеличить масштаб, щелкните зеленые кнопки с черным крестиком; чтобы уменьшить масштаб, щелкните зеленую кнопку с тире; для просмотра соседних карт щелкайте зеленые стрелки.


METAR-TAF: